キエフ/ボリースピリ の空港の天気 - METARとTAF

ボリースピリ国際空港(キエフ) ( UKBB / KBP ) - ウクライナ ボリスピリ (キエフ近郊)
飛行場実況気象(Metar)
観測時間04/26 19:30 EEST (04/26 16:30 UTC)
風向・風速南 3m/s
視程10km以上
天気現象
なし
気温18℃
湿度45%
気圧1017hPa
METARUKBB 261630Z 19003MPS CAVOK 18/06 Q1017 R88/D NOSIG
過去の天気等 Google飛行場航空写真 Wunderground天気予報

過去48時間のMETAR

飛行場予報(TAF)
発表時間: 4/26 14:00 EEST (4/26 11:00 UTC)
予報対象時間: 26日15時 EEST ~ 27日15時 EEST
風向・風速南 5m/s 瞬間風速 10m/s
視程10km以上
全天の4割程度の雲 雲底高度 1220m
26日21時 EEST ~ 26日23時 EEST に徐々に
全天の8割程度の雲 雲底高度 610m
26日23時 EEST ~ 27日9時 EEST に一時的に
視程2000m
天気現象もや 煙
全天の4割程度の雲 雲底高度 180m
27日11時 EEST ~ 27日15時 EEST に一時的に
風向・風速南 6m/s 瞬間風速 12m/s
全天の4割程度の積乱雲 雲底高度 610m
TAF UKBB 261100Z 2612/2712 18005G10MPS 9999 SCT040
BECMG 2618/2620 BKN020
TEMPO 2620/2706 2000 BR FU SCT006
TEMPO 2708/2712 19006G12MPS SCT020CB